Time;durP1;ratioP1;P1;durP2;ratioP2;P2;SDS_P1;SDS_P2;PMS_P1;PMS_P2;Temp;Humidity;BMP_temperature;BMP_pressure;BME280_temperature;BME280_humidity;BME280_pressure;Samples;Min_cycle;Max_cycle;Signal;HPM_P1;HPM_P2
2023/03/15 00:02:21;;;;;;;15.45;7.13;;;;;;;0.91;100.00;100320.47;4949990;28;20035;-78
2023/03/15 00:04:53;;;;;;;13.07;6.40;;;;;;;0.41;100.00;100315.31;4967756;28;20494;-78
2023/03/15 00:07:24;;;;;;;9.65;6.07;;;;;;;0.20;100.00;100333.72;4966194;28;20048;-79
2023/03/15 00:09:55;;;;;;;13.32;6.30;;;;;;;0.08;100.00;100324.81;4966447;28;20495;-79
2023/03/15 00:12:25;;;;;;;12.48;6.18;;;;;;;0.01;100.00;100318.22;4948633;28;20535;-78
2023/03/15 00:14:55;;;;;;;14.38;6.90;;;;;;;0.01;100.00;100319.09;4953406;28;20567;-79
2023/03/15 00:17:25;;;;;;;13.60;7.03;;;;;;;0.04;100.00;100315.47;4952422;28;20033;-79
2023/03/15 00:19:55;;;;;;;14.48;6.25;;;;;;;0.01;100.00;100311.28;4958137;28;20074;-78
2023/03/15 00:22:23;;;;;;;11.93;6.47;;;;;;;0.11;100.00;100303.84;4937546;28;20039;-79
2023/03/15 00:24:51;;;;;;;14.93;6.97;;;;;;;0.23;100.00;100303.22;4968669;28;20118;-79
2023/03/15 00:27:21;;;;;;;7.60;5.03;;;;;;;0.33;100.00;100302.72;4961019;28;20040;-79
2023/03/15 00:29:51;;;;;;;7.97;4.57;;;;;;;0.42;100.00;100294.44;4945238;28;20070;-79
2023/03/15 00:32:20;;;;;;;12.88;5.35;;;;;;;0.51;100.00;100300.06;4947322;28;20048;-78
2023/03/15 00:34:48;;;;;;;10.45;5.13;;;;;;;0.53;100.00;100301.66;4956247;28;20117;-79
2023/03/15 00:37:16;;;;;;;11.13;4.70;;;;;;;0.59;100.00;100295.28;4953171;28;20039;-79
2023/03/15 00:39:44;;;;;;;7.07;4.72;;;;;;;0.65;100.00;100301.91;4953533;28;20392;-79
2023/03/15 00:42:14;;;;;;;15.10;5.63;;;;;;;0.69;100.00;100308.63;4956473;28;20049;-79
2023/03/15 00:44:43;;;;;;;9.93;5.43;;;;;;;0.66;100.00;100308.78;4928769;28;20511;-79
2023/03/15 00:47:13;;;;;;;9.45;4.75;;;;;;;0.60;100.00;100305.59;4956149;28;20042;-81
2023/03/15 00:49:41;;;;;;;7.40;4.72;;;;;;;0.54;100.00;100302.50;4966704;28;20050;-81
2023/03/15 00:52:11;;;;;;;8.43;4.65;;;;;;;0.50;100.00;100307.00;4970787;28;20035;-81
2023/03/15 00:54:40;;;;;;;9.25;3.97;;;;;;;0.44;100.00;100300.41;4945888;29;20039;-81
2023/03/15 00:57:08;;;;;;;7.82;3.78;;;;;;;0.46;100.00;100302.91;4939526;28;20047;-80
2023/03/15 00:59:36;;;;;;;11.02;3.92;;;;;;;0.41;100.00;100305.75;4972721;28;20038;-78
2023/03/15 01:02:05;;;;;;;10.40;4.35;;;;;;;0.39;100.00;100301.53;4936149;29;20062;-79
2023/03/15 01:04:33;;;;;;;7.07;3.60;;;;;;;0.34;100.00;100297.44;4949315;28;20042;-79
2023/03/15 01:07:03;;;;;;;8.07;4.85;;;;;;;0.40;100.00;100298.03;4937245;28;20462;-79
2023/03/15 01:09:31;;;;;;;8.45;4.50;;;;;;;0.33;100.00;100297.53;4948189;28;20062;-78
2023/03/15 01:11:59;;;;;;;11.07;5.43;;;;;;;0.32;100.00;100296.66;4953036;28;20027;-79
2023/03/15 01:14:27;;;;;;;9.30;5.28;;;;;;;0.35;100.00;100295.69;4962948;28;20534;-79
2023/03/15 01:16:57;;;;;;;10.10;4.28;;;;;;;0.40;100.00;100292.84;4967997;28;20038;-78
2023/03/15 01:19:27;;;;;;;7.30;4.00;;;;;;;0.40;100.00;100277.25;4956464;28;20471;-79
2023/03/15 01:21:56;;;;;;;6.13;3.85;;;;;;;0.40;100.00;100264.25;4931811;28;20442;-79
2023/03/15 01:24:25;;;;;;;8.13;4.82;;;;;;;0.40;100.00;100269.44;4940370;28;20035;-79
2023/03/15 01:26:53;;;;;;;7.80;5.28;;;;;;;0.31;100.00;100262.94;4956540;28;20049;-78
2023/03/15 01:29:22;;;;;;;13.32;5.32;;;;;;;0.30;100.00;100277.75;4939246;28;20069;-78
2023/03/15 01:31:50;;;;;;;8.93;5.15;;;;;;;0.28;100.00;100281.31;4956136;28;20169;-79
2023/03/15 01:34:18;;;;;;;8.82;5.18;;;;;;;0.32;100.00;100291.47;4939467;28;20039;-79
2023/03/15 01:36:51;;;;;;;20.48;4.53;;;;;;;0.39;100.00;100291.13;4939872;28;20050;-79
2023/03/15 01:39:20;;;;;;;7.60;5.15;;;;;;;0.39;100.00;100288.53;4925267;28;20100;-79
2023/03/15 01:41:48;;;;;;;7.18;4.47;;;;;;;0.40;100.00;100293.66;4954897;28;20038;-79
2023/03/15 01:44:19;;;;;;;8.43;4.35;;;;;;;0.43;100.00;100288.28;4973797;28;20108;-79
2023/03/15 01:46:50;;;;;;;9.13;4.50;;;;;;;0.38;100.00;100290.31;4940921;28;20047;-79
2023/03/15 01:49:25;;;;;;;7.88;4.00;;;;;;;0.35;100.00;100285.28;4925296;28;20049;-78
2023/03/15 01:52:01;;;;;;;7.97;4.65;;;;;;;0.34;100.00;100276.63;4927909;29;20114;-79
2023/03/15 01:54:49;;;;;;;6.43;4.20;;;;;;;0.34;100.00;100273.19;4926675;28;20454;-78
2023/03/15 01:57:29;;;;;;;13.77;5.43;;;;;;;0.30;100.00;100269.09;4968236;28;20074;-78
2023/03/15 02:00:10;;;;;;;10.27;5.68;;;;;;;0.19;100.00;100265.28;4952332;28;20074;-79
2023/03/15 02:03:07;;;;;;;10.48;5.50;;;;;;;0.08;100.00;100273.66;4943909;29;20026;-79
2023/03/15 02:05:45;;;;;;;9.13;5.35;;;;;;;0.11;100.00;100262.28;4921828;29;20031;-78
2023/03/15 02:08:27;;;;;;;;;;;;;;;0.09;100.00;100270.16;4937939;28;20027;-78
2023/03/15 02:10:59;;;;;;;11.73;5.85;;;;;;;0.09;100.00;100264.94;4939781;28;19914;-79
2023/03/15 02:13:33;;;;;;;14.00;6.68;;;;;;;0.11;100.00;100272.66;4956201;28;20037;-79
2023/03/15 02:16:06;;;;;;;13.27;7.28;;;;;;;0.16;100.00;100269.81;4941844;28;20099;-79
2023/03/15 02:18:41;;;;;;;10.73;6.00;;;;;;;0.22;100.00;100267.72;4944359;28;20039;-78
2023/03/15 02:21:56;;;;;;;11.27;6.05;;;;;;;0.36;100.00;100259.19;4944521;28;20449;-79
2023/03/15 02:24:42;;;;;;;12.30;6.95;;;;;;;0.38;100.00;100255.66;4915711;28;20129;-79
2023/03/15 02:27:12;;;;;;;15.98;6.90;;;;;;;0.33;100.00;100254.16;4916808;29;20306;-79
2023/03/15 02:29:43;;;;;;;10.85;6.38;;;;;;;0.39;100.00;100246.94;4939172;28;20046;-79
2023/03/15 02:32:14;;;;;;;14.75;7.18;;;;;;;0.44;100.00;100237.13;4969556;28;20026;-79
2023/03/15 02:34:43;;;;;;;16.95;7.03;;;;;;;0.50;100.00;100234.19;4948556;29;20039;-79
2023/03/15 02:37:10;;;;;;;16.02;7.53;;;;;;;0.50;100.00;100231.59;4936167;28;20035;-79
2023/03/15 02:39:38;;;;;;;11.45;6.82;;;;;;;0.54;100.00;100225.28;4960718;28;20123;-79
2023/03/15 02:42:06;;;;;;;11.23;6.65;;;;;;;0.56;100.00;100220.00;4952872;28;20368;-79
2023/03/15 02:44:38;;;;;;;10.82;6.65;;;;;;;0.62;100.00;100230.09;4938168;28;20049;-79
2023/03/15 02:47:11;;;;;;;12.00;7.00;;;;;;;0.68;100.00;100223.69;4966948;28;20534;-79
2023/03/15 02:49:44;;;;;;;12.35;6.88;;;;;;;0.69;100.00;100208.00;4949994;28;20023;-79
2023/03/15 02:52:14;;;;;;;12.07;7.03;;;;;;;0.72;100.00;100213.03;4962885;28;20042;-79
2023/03/15 02:54:44;;;;;;;10.68;7.00;;;;;;;0.76;100.00;100211.09;4931895;29;20035;-78
2023/03/15 02:57:16;;;;;;;12.98;6.93;;;;;;;0.77;100.00;100214.53;4934391;28;20039;-79
2023/03/15 02:59:50;;;;;;;12.00;7.30;;;;;;;0.75;100.00;100204.22;4954712;28;20035;-79
2023/03/15 03:02:22;;;;;;;14.40;8.05;;;;;;;0.70;100.00;100204.47;4952378;28;20042;-79
2023/03/15 03:04:52;;;;;;;14.10;9.02;;;;;;;0.71;100.00;100194.91;4928990;28;20046;-78
2023/03/15 03:07:21;;;;;;;12.18;7.97;;;;;;;0.71;100.00;100176.69;4954466;28;20058;-79
2023/03/15 03:09:53;;;;;;;17.85;9.13;;;;;;;0.67;100.00;100185.63;4932426;28;20049;-79
2023/03/15 03:12:23;;;;;;;13.57;8.35;;;;;;;0.64;100.00;100184.00;4929225;28;20038;-79
2023/03/15 03:14:51;;;;;;;12.52;8.20;;;;;;;0.63;100.00;100171.94;4950049;28;20074;-79
2023/03/15 03:17:24;;;;;;;13.77;8.35;;;;;;;0.68;100.00;100169.06;4950512;28;20035;-78
2023/03/15 03:19:53;;;;;;;13.13;8.57;;;;;;;0.69;100.00;100163.78;4932451;28;20046;-79
2023/03/15 03:22:27;;;;;;;16.73;9.15;;;;;;;0.66;100.00;100156.16;4927269;28;20388;-79
2023/03/15 03:24:57;;;;;;;12.73;8.23;;;;;;;0.60;100.00;100149.53;4917111;29;20388;-79
2023/03/15 03:27:27;;;;;;;14.25;9.00;;;;;;;0.53;100.00;100147.34;4945683;28;20037;-79
2023/03/15 03:29:55;;;;;;;14.80;9.10;;;;;;;0.49;100.00;100149.31;4946675;28;20062;-79
2023/03/15 03:32:23;;;;;;;16.65;10.43;;;;;;;0.46;100.00;100142.50;4954024;28;20035;-80
2023/03/15 03:34:52;;;;;;;19.13;10.63;;;;;;;0.41;100.00;100143.69;4939671;28;20031;-78
2023/03/15 03:37:24;;;;;;;19.40;9.52;;;;;;;0.43;100.00;100134.88;4945919;28;20043;-78
2023/03/15 03:39:59;;;;;;;18.23;9.95;;;;;;;0.38;100.00;100131.72;4958796;28;20498;-79
2023/03/15 03:42:28;;;;;;;16.67;10.07;;;;;;;0.35;100.00;100130.09;4939770;28;20046;-78
2023/03/15 03:44:56;;;;;;;19.40;10.38;;;;;;;0.30;100.00;100137.34;4949548;28;20432;-79
2023/03/15 03:47:30;;;;;;;16.98;9.25;;;;;;;0.31;100.00;100141.59;4936918;28;20037;-79
2023/03/15 03:50:03;;;;;;;17.83;9.80;;;;;;;0.26;100.00;100147.97;4949851;28;20078;-78
2023/03/15 03:52:32;;;;;;;13.38;8.20;;;;;;;0.20;100.00;100141.34;4927529;28;20129;-79
2023/03/15 03:55:13;;;;;;;17.48;9.30;;;;;;;0.16;100.00;100137.25;4936564;28;20499;-79
2023/03/15 03:57:45;;;;;;;19.48;10.13;;;;;;;0.11;100.00;100143.53;4943461;28;20145;-79
2023/03/15 04:00:22;;;;;;;28.40;9.63;;;;;;;0.08;100.00;100146.31;4949300;28;20038;-79
2023/03/15 04:02:52;;;;;;;21.67;10.90;;;;;;;0.03;100.00;100142.28;4952784;28;20030;-79
2023/03/15 04:05:30;;;;;;;14.65;8.88;;;;;;;0.04;100.00;100142.22;4951936;28;20058;-79
2023/03/15 04:08:01;;;;;;;13.70;8.00;;;;;;;0.10;100.00;100139.28;4953160;28;20031;-79
2023/03/15 04:10:33;;;;;;;25.00;10.93;;;;;;;0.13;100.00;100142.63;4963225;28;20043;-78
2023/03/15 04:13:03;;;;;;;14.65;8.13;;;;;;;0.15;100.00;100144.22;4935937;28;20039;-78
2023/03/15 04:15:30;;;;;;;13.45;8.45;;;;;;;0.19;100.00;100142.28;4964707;28;20083;-79
2023/03/15 04:18:04;;;;;;;13.18;7.88;;;;;;;0.22;100.00;100142.94;4952586;28;20031;-79
2023/03/15 04:20:37;;;;;;;10.73;7.45;;;;;;;0.31;100.00;100139.00;4954123;28;20393;-79
2023/03/15 04:23:09;;;;;;;17.73;7.93;;;;;;;0.40;100.00;100134.22;4932500;28;20087;-79
2023/03/15 04:26:00;;;;;;;15.57;7.80;;;;;;;0.46;100.00;100132.09;4948832;28;20041;-79
2023/03/15 04:28:48;;;;;;;13.57;7.50;;;;;;;0.49;100.00;100131.09;4959375;28;20416;-78
2023/03/15 04:31:43;;;;;;;15.02;7.50;;;;;;;0.59;100.00;100131.44;4929481;28;20388;-78
2023/03/15 04:34:27;;;;;;;11.50;7.22;;;;;;;0.63;100.00;100139.88;4953960;28;20035;-78
2023/03/15 04:37:05;;;;;;;13.68;7.47;;;;;;;0.70;100.00;100136.00;4936287;29;20023;-78
2023/03/15 04:39:52;;;;;;;13.25;6.85;;;;;;;0.71;100.00;100140.28;4962350;28;20039;-78
2023/03/15 04:42:39;;;;;;;13.52;6.13;;;;;;;0.68;100.00;100141.31;4971638;28;20045;-79
2023/03/15 04:45:29;;;;;;;11.25;6.10;;;;;;;0.69;100.00;100136.91;4974339;28;20491;-78
2023/03/15 04:48:16;;;;;;;14.38;6.13;;;;;;;0.74;100.00;100142.69;4940334;28;20439;-79
2023/03/15 04:50:59;;;;;;;13.50;6.22;;;;;;;0.73;100.00;100141.03;4950479;28;20102;-78
2023/03/15 04:53:54;;;;;;;10.48;5.70;;;;;;;0.88;100.00;100154.09;4925084;29;20047;-78
2023/03/15 04:56:51;;;;;;;;;;;;;;;0.85;100.00;100153.34;4945145;28;20518;-79
2023/03/15 04:59:38;;;;;;;;;;;;;;;0.89;100.00;100154.00;4971535;28;20293;-80
2023/03/15 05:02:13;;;;;;;7.80;5.10;;;;;;;1.00;100.00;100155.97;4969352;28;19918;-80
2023/03/15 05:05:00;;;;;;;9.45;5.05;;;;;;;1.05;100.00;100148.72;4947496;28;20034;-79
2023/03/15 05:07:55;;;;;;;10.30;5.82;;;;;;;1.12;100.00;100154.41;4955787;28;20046;-78
2023/03/15 05:10:32;;;;;;;11.60;5.18;;;;;;;1.18;100.00;100143.63;4923556;29;20047;-78
2023/03/15 05:13:11;;;;;;;7.60;4.82;;;;;;;1.23;100.00;100143.34;4949974;28;20039;-78
2023/03/15 05:16:00;;;;;;;7.43;5.00;;;;;;;1.24;100.00;100134.63;4951678;28;20138;-78
2023/03/15 05:18:46;;;;;;;;;;;;;;;1.21;100.00;100137.41;4952735;28;20039;-78
2023/03/15 05:21:34;;;;;;;11.63;6.63;;;;;;;1.22;100.00;100142.53;4961639;28;19918;-78
2023/03/15 05:24:11;;;;;;;8.68;4.80;;;;;;;1.26;100.00;100127.56;4970944;28;20457;-78
2023/03/15 05:27:10;;;;;;;11.77;5.32;;;;;;;1.32;100.00;100127.19;4932016;28;20479;-78
2023/03/15 05:29:51;;;;;;;17.27;5.60;;;;;;;1.32;100.00;100124.56;4952481;28;20115;-78
2023/03/15 05:32:43;;;;;;;10.18;5.40;;;;;;;1.37;100.00;100119.09;4970575;28;20051;-78
2023/03/15 05:35:31;;;;;;;7.93;4.60;;;;;;;1.40;100.00;100115.47;4939053;28;20078;-78
2023/03/15 05:38:16;;;;;;;6.68;4.25;;;;;;;1.44;100.00;100120.41;4939922;29;20023;-78
2023/03/15 05:41:23;;;;;;;6.10;4.43;;;;;;;1.45;100.00;100122.06;4953676;28;20045;-79
2023/03/15 05:44:15;;;;;;;13.52;4.93;;;;;;;1.48;100.00;100108.84;4941227;28;20468;-78
2023/03/15 05:47:09;;;;;;;11.48;5.05;;;;;;;1.45;100.00;100103.84;4959680;28;20039;-78
2023/03/15 05:49:52;;;;;;;11.60;4.78;;;;;;;1.46;100.00;100092.50;4970431;28;20059;-78
2023/03/15 05:52:35;;;;;;;8.00;5.32;;;;;;;1.48;100.00;100087.22;4940274;28;20046;-78
2023/03/15 05:55:32;;;;;;;9.93;5.03;;;;;;;1.46;100.00;100076.88;4946087;28;20545;-78
2023/03/15 05:58:19;;;;;;;9.55;5.03;;;;;;;1.52;100.00;100067.00;4965631;28;20037;-78
2023/03/15 06:01:16;;;;;;;13.55;5.13;;;;;;;1.51;100.00;100055.75;4943544;28;20067;-78
2023/03/15 06:04:02;;;;;;;;;;;;;;;1.50;100.00;100059.28;4950338;28;20036;-78
2023/03/15 06:06:32;;;;;;;7.72;4.55;;;;;;;1.47;100.00;100055.09;4949838;28;19926;-79
2023/03/15 06:09:00;;;;;;;7.93;5.25;;;;;;;1.52;100.00;100040.94;4950973;28;20049;-79
2023/03/15 06:11:27;;;;;;;8.82;5.32;;;;;;;1.55;100.00;100041.59;4924289;28;20368;-78
2023/03/15 06:13:56;;;;;;;7.45;5.07;;;;;;;1.58;100.00;100036.19;4952617;28;20534;-79
2023/03/15 06:16:42;;;;;;;;;;;;;;;1.56;100.00;100029.41;4968115;28;20125;-78
2023/03/15 06:19:11;;;;;;;8.73;5.10;;;;;;;1.59;100.00;100031.84;4949355;28;20001;-78
2023/03/15 06:21:38;;;;;;;7.82;4.65;;;;;;;1.58;100.00;100027.53;4936051;28;20491;-78
2023/03/15 06:24:14;;;;;;;10.93;3.70;;;;;;;1.59;100.00;100021.41;4935078;28;20053;-79
2023/03/15 06:26:42;;;;;;;7.68;2.60;;;;;;;1.54;100.00;100021.72;4949055;28;20483;-78
2023/03/15 06:29:12;;;;;;;8.85;2.63;;;;;;;1.55;100.00;100023.38;4936145;28;20399;-78
2023/03/15 06:31:40;;;;;;;6.05;1.88;;;;;;;1.53;100.00;100027.00;4969784;28;20035;-78
2023/03/15 06:34:09;;;;;;;4.72;1.75;;;;;;;1.53;100.00;100016.59;4944880;28;20043;-79
2023/03/15 06:36:37;;;;;;;6.00;1.30;;;;;;;1.52;100.00;100007.94;4951571;28;20035;-78
2023/03/15 06:39:06;;;;;;;8.20;1.80;;;;;;;1.52;100.00;100002.72;4944750;28;20086;-79
2023/03/15 06:41:33;;;;;;;4.80;1.40;;;;;;;1.55;100.00;100002.53;4936487;28;20052;-79
2023/03/15 06:44:08;;;;;;;3.78;1.30;;;;;;;1.57;100.00;100005.03;4949689;28;20497;-79
2023/03/15 06:46:38;;;;;;;3.00;1.35;;;;;;;1.59;100.00;99995.38;4965518;28;20046;-78
2023/03/15 06:49:06;;;;;;;8.48;1.90;;;;;;;1.60;100.00;100002.22;4969427;28;20035;-78
2023/03/15 06:51:37;;;;;;;8.10;2.13;;;;;;;1.67;100.00;99995.69;4937187;29;20055;-78
2023/03/15 06:54:06;;;;;;;6.82;2.20;;;;;;;1.73;100.00;99991.88;4934024;28;20039;-78
2023/03/15 06:56:36;;;;;;;8.13;0.93;;;;;;;1.70;100.00;99986.84;4918956;29;20042;-78
2023/03/15 06:59:04;;;;;;;6.78;1.50;;;;;;;1.76;100.00;99980.41;4867192;29;20495;-78
2023/03/15 07:01:32;;;;;;;5.60;1.50;;;;;;;1.79;100.00;99978.44;4913681;28;20053;-78
2023/03/15 07:04:00;;;;;;;7.25;1.63;;;;;;;1.84;100.00;99963.34;4935168;28;20109;-78
2023/03/15 07:06:28;;;;;;;6.72;2.00;;;;;;;1.86;100.00;99965.88;4934124;29;20038;-78
2023/03/15 07:08:56;;;;;;;6.90;2.00;;;;;;;1.92;100.00;99954.19;4952125;29;20031;-79
2023/03/15 07:11:24;;;;;;;9.45;1.23;;;;;;;1.96;100.00;99950.44;4917189;29;20174;-79
2023/03/15 07:13:52;;;;;;;4.80;1.25;;;;;;;2.02;100.00;99950.06;4919554;29;20031;-78
2023/03/15 07:16:20;;;;;;;4.63;1.33;;;;;;;2.04;100.00;99947.34;4945209;29;20034;-79
2023/03/15 07:18:49;;;;;;;2.75;1.05;;;;;;;2.09;100.00;99951.31;4935051;29;20039;-79
2023/03/15 07:21:17;;;;;;;7.05;1.08;;;;;;;2.12;100.00;99939.03;4933145;29;20070;-79
2023/03/15 07:23:44;;;;;;;3.90;0.93;;;;;;;2.20;100.00;99936.72;4933662;29;20107;-79
2023/03/15 07:26:12;;;;;;;7.40;1.30;;;;;;;2.21;100.00;99928.78;4917854;29;20039;-79
2023/03/15 07:28:43;;;;;;;4.85;1.58;;;;;;;2.26;100.00;99928.50;4951127;28;20027;-78
2023/03/15 07:31:11;;;;;;;5.53;1.10;;;;;;;2.29;100.00;99920.47;4933923;29;20102;-79
2023/03/15 07:33:39;;;;;;;3.63;0.98;;;;;;;2.33;100.00;99913.25;4939574;29;20063;-78
2023/03/15 07:36:08;;;;;;;9.15;1.40;;;;;;;2.39;100.00;99931.09;4938428;29;20057;-78
2023/03/15 07:38:37;;;;;;;9.18;1.27;;;;;;;2.46;100.00;99915.88;4934837;29;20023;-79
2023/03/15 07:41:06;;;;;;;7.95;1.20;;;;;;;2.51;100.00;99918.16;4919160;29;20059;-79
2023/03/15 07:43:34;;;;;;;7.43;1.38;;;;;;;2.53;100.00;99914.53;4945506;29;20032;-79
2023/03/15 07:46:11;;;;;;;4.72;1.13;;;;;;;2.56;100.00;99913.47;4946824;28;20059;-78
2023/03/15 07:48:40;;;;;;;6.13;1.52;;;;;;;2.63;100.00;99912.09;4934651;28;20043;-78
2023/03/15 07:51:07;;;;;;;13.23;2.28;;;;;;;2.67;100.00;99907.50;4916436;29;20047;-78
2023/03/15 07:53:35;;;;;;;7.88;1.30;;;;;;;2.73;100.00;99910.53;4944249;28;20050;-79
2023/03/15 07:56:03;;;;;;;5.75;1.00;;;;;;;2.76;100.00;99909.47;4934557;29;20032;-78
2023/03/15 07:58:31;;;;;;;6.82;1.42;;;;;;;2.81;100.00;99907.38;4921459;29;20433;-79
2023/03/15 08:00:59;;;;;;;9.13;1.20;;;;;;;2.84;100.00;99907.16;4930740;28;20035;-79
2023/03/15 08:03:28;;;;;;;5.95;1.45;;;;;;;2.92;100.00;99908.41;4939146;29;20106;-78
2023/03/15 08:05:58;;;;;;;5.13;1.10;;;;;;;2.96;100.00;99907.25;4934845;29;20066;-79
2023/03/15 08:08:28;;;;;;;6.53;0.85;;;;;;;3.02;100.00;99901.59;4951900;28;20408;-79
2023/03/15 08:10:58;;;;;;;5.55;1.00;;;;;;;3.08;100.00;99906.38;4948256;28;20031;-78
2023/03/15 08:13:26;;;;;;;6.43;0.85;;;;;;;3.14;100.00;99899.06;4939165;29;20039;-79
2023/03/15 08:15:54;;;;;;;5.60;0.88;;;;;;;3.22;100.00;99904.56;4916973;29;20130;-79
2023/03/15 08:18:22;;;;;;;6.50;0.98;;;;;;;3.25;100.00;99898.28;4917560;29;20062;-79
2023/03/15 08:20:51;;;;;;;5.28;0.75;;;;;;;3.34;100.00;99900.25;4942209;28;20039;-79
2023/03/15 08:23:18;;;;;;;4.32;0.70;;;;;;;3.38;100.00;99901.66;4943136;28;20717;-79
2023/03/15 08:25:49;;;;;;;5.03;0.80;;;;;;;3.44;100.00;99901.22;4919342;29;20122;-79
2023/03/15 08:28:18;;;;;;;5.10;0.77;;;;;;;3.50;100.00;99896.50;4953303;29;20268;-79
2023/03/15 08:30:47;;;;;;;9.00;1.10;;;;;;;3.54;100.00;99890.94;4941953;28;20039;-79
2023/03/15 08:33:15;;;;;;;9.65;1.17;;;;;;;3.56;100.00;99890.81;4946566;28;20031;-79
2023/03/15 08:35:44;;;;;;;6.28;1.08;;;;;;;3.58;100.00;99881.91;4955813;28;20046;-79
2023/03/15 08:38:13;;;;;;;5.72;0.88;;;;;;;3.61;100.00;99883.50;4952311;28;20030;-79
2023/03/15 08:40:43;;;;;;;7.28;0.80;;;;;;;3.62;100.00;99881.69;4942267;29;20134;-79
2023/03/15 08:43:13;;;;;;;4.15;0.60;;;;;;;3.60;100.00;99877.44;4943484;29;20042;-79
2023/03/15 08:45:42;;;;;;;8.27;1.48;;;;;;;3.60;100.00;99869.59;4934935;29;20061;-79
2023/03/15 08:48:13;;;;;;;8.05;1.00;;;;;;;3.60;100.00;99864.34;4953435;29;20046;-79
2023/03/15 08:50:43;;;;;;;7.07;0.55;;;;;;;3.64;100.00;99857.13;4934324;29;20055;-79
2023/03/15 08:53:12;;;;;;;3.55;0.52;;;;;;;3.68;100.00;99852.50;4915003;29;20078;-79
2023/03/15 08:55:40;;;;;;;3.10;0.68;;;;;;;3.70;100.00;99847.97;4953145;29;20055;-78
2023/03/15 08:58:11;;;;;;;5.47;0.55;;;;;;;3.77;100.00;99851.81;4933333;29;20031;-79
2023/03/15 09:00:41;;;;;;;5.35;0.65;;;;;;;3.83;100.00;99846.13;4912947;29;20130;-79
2023/03/15 09:03:10;;;;;;;3.72;0.50;;;;;;;3.89;100.00;99836.13;4938176;29;20031;-80
2023/03/15 09:05:38;;;;;;;3.60;0.40;;;;;;;3.93;100.00;99846.28;4937633;29;20074;-79
2023/03/15 09:08:07;;;;;;;4.60;0.90;;;;;;;4.03;100.00;99840.34;4927916;29;20042;-79
2023/03/15 09:10:36;;;;;;;2.17;0.47;;;;;;;4.04;100.00;99842.84;4947909;29;20053;-79
2023/03/15 09:13:04;;;;;;;2.38;0.57;;;;;;;4.07;100.00;99839.16;4937607;29;20035;-78
2023/03/15 09:15:32;;;;;;;5.22;1.20;;;;;;;4.14;100.00;99834.28;4939624;29;20672;-80
2023/03/15 09:17:59;;;;;;;3.75;0.85;;;;;;;4.18;100.00;99833.09;4937734;29;20028;-81
2023/03/15 09:20:28;;;;;;;3.55;0.70;;;;;;;4.22;100.00;99827.50;4930651;29;20028;-80
2023/03/15 09:22:57;;;;;;;3.28;0.90;;;;;;;4.27;100.00;99827.16;4937429;29;20574;-81
2023/03/15 09:25:25;;;;;;;3.88;0.65;;;;;;;4.29;100.00;99824.41;4934760;29;20050;-79
2023/03/15 09:27:53;;;;;;;6.63;0.93;;;;;;;4.33;100.00;99820.63;4937101;29;20142;-78
2023/03/15 09:30:21;;;;;;;3.63;1.00;;;;;;;4.39;100.00;99808.84;4950161;29;20046;-81
2023/03/15 09:32:50;;;;;;;5.85;0.85;;;;;;;4.44;100.00;99804.09;4906589;29;20043;-81
2023/03/15 09:35:19;;;;;;;4.10;0.60;;;;;;;4.48;100.00;99802.88;4953789;29;20051;-81
2023/03/15 09:37:48;;;;;;;5.18;0.60;;;;;;;4.54;100.00;99796.34;4936466;29;20043;-81
2023/03/15 09:40:27;;;;;;;7.60;0.80;;;;;;;4.57;100.00;99793.50;4926141;29;20031;-81
2023/03/15 09:43:10;;;;;;;3.65;0.80;;;;;;;4.66;100.00;99778.81;4925885;29;20035;-81
2023/03/15 09:46:17;;;;;;;6.05;0.70;;;;;;;4.69;100.00;99762.88;4929967;29;20051;-81
2023/03/15 09:49:12;;;;;;;4.57;0.60;;;;;;;4.75;100.00;99761.53;4936131;29;20456;-79
2023/03/15 09:52:00;;;;;;;6.45;0.60;;;;;;;4.75;100.00;99767.63;4956964;28;20050;-81
2023/03/15 09:54:39;;;;;;;2.70;0.52;;;;;;;4.82;100.00;99752.25;4939502;28;20459;-81
2023/03/15 09:57:17;;;;;;;3.58;0.82;;;;;;;4.85;100.00;99749.38;4936158;28;20034;-80
2023/03/15 09:59:51;;;;;;;7.10;0.50;;;;;;;4.92;100.00;99739.25;4936452;29;20383;-81
2023/03/15 10:02:28;;;;;;;3.55;0.75;;;;;;;4.95;100.00;99741.63;4937041;28;20045;-80
2023/03/15 10:05:47;;;;;;;2.60;0.50;;;;;;;4.96;100.00;99738.88;4943813;28;20070;-81
2023/03/15 10:08:19;;;;;;;3.97;0.65;;;;;;;5.03;100.00;99731.31;4913257;29;20036;-81
2023/03/15 10:11:20;;;;;;;4.55;0.52;;;;;;;5.08;100.00;99720.50;4938362;28;20038;-81
2023/03/15 10:14:20;;;;;;;5.07;0.65;;;;;;;5.10;100.00;99718.56;4920794;28;20074;-81
2023/03/15 10:16:50;;;;;;;6.25;0.60;;;;;;;5.14;100.00;99709.50;4963118;28;20435;-80
2023/03/15 10:19:18;;;;;;;7.10;0.73;;;;;;;5.15;100.00;99710.31;4964055;28;20484;-81
2023/03/15 10:21:56;;;;;;;7.07;0.70;;;;;;;5.22;100.00;99709.69;4954181;28;20043;-81
2023/03/15 10:24:47;;;;;;;4.03;0.50;;;;;;;5.24;100.00;99706.13;4965754;28;20121;-81
2023/03/15 10:27:27;;;;;;;6.03;0.52;;;;;;;5.34;100.00;99694.72;4931104;28;20047;-81
2023/03/15 10:29:58;;;;;;;5.55;0.70;;;;;;;5.37;100.00;99703.31;4939241;28;20103;-81
2023/03/15 10:32:37;;;;;;;1.73;0.43;;;;;;;5.42;100.00;99688.00;4955256;28;20035;-81
2023/03/15 10:35:14;;;;;;;8.73;0.88;;;;;;;5.50;100.00;99688.19;4968316;28;20039;-81
2023/03/15 10:37:43;;;;;;;3.42;0.50;;;;;;;5.51;100.00;99686.41;4943810;29;20027;-79
2023/03/15 10:40:15;;;;;;;4.75;0.63;;;;;;;5.54;100.00;99696.63;4937295;28;20039;-80
2023/03/15 10:42:46;;;;;;;3.80;0.60;;;;;;;5.54;100.00;99688.78;4922705;29;20043;-80
2023/03/15 10:45:23;;;;;;;2.92;0.60;;;;;;;5.62;100.00;99694.19;4937822;28;20030;-80
2023/03/15 10:47:54;;;;;;;6.38;0.65;;;;;;;5.64;100.00;99684.41;4955895;28;20151;-80
2023/03/15 10:50:33;;;;;;;8.20;0.75;;;;;;;5.69;100.00;99684.84;4936663;29;20107;-80
2023/03/15 10:53:19;;;;;;;7.00;0.77;;;;;;;5.71;100.00;99684.72;4947538;29;20031;-80
2023/03/15 10:55:48;;;;;;;5.57;1.42;;;;;;;5.75;100.00;99683.47;4952595;28;20034;-80
2023/03/15 10:58:30;;;;;;;2.50;0.50;;;;;;;5.81;100.00;99677.69;4936096;29;20041;-80
2023/03/15 11:01:06;;;;;;;5.25;1.00;;;;;;;5.86;100.00;99669.44;4938102;29;20041;-80
2023/03/15 11:03:38;;;;;;;5.28;0.93;;;;;;;5.83;100.00;99657.41;4921730;29;20056;-80
2023/03/15 11:06:27;;;;;;;5.53;0.50;;;;;;;5.92;100.00;99647.09;4947232;29;20031;-81
2023/03/15 11:09:09;;;;;;;5.28;0.63;;;;;;;5.94;100.00;99640.75;4932849;29;20044;-80
2023/03/15 11:11:50;;;;;;;8.68;1.02;;;;;;;5.99;100.00;99642.16;4940012;29;20141;-81
2023/03/15 11:14:19;;;;;;;4.90;0.63;;;;;;;6.02;100.00;99637.44;4943656;29;20035;-81
2023/03/15 11:16:50;;;;;;;3.92;0.70;;;;;;;6.09;100.00;99624.66;4938765;28;20039;-80
2023/03/15 11:19:22;;;;;;;4.40;0.60;;;;;;;6.12;100.00;99621.75;4936229;29;20090;-80
2023/03/15 11:21:52;;;;;;;7.70;0.65;;;;;;;6.17;100.00;99608.22;4941560;29;20067;-81
2023/03/15 11:24:27;;;;;;;3.85;0.40;;;;;;;6.20;100.00;99600.94;4949086;29;20084;-80
2023/03/15 11:27:03;;;;;;;4.45;1.20;;;;;;;6.23;100.00;99610.31;4935813;29;20062;-81
2023/03/15 11:29:34;;;;;;;6.25;0.82;;;;;;;6.22;100.00;99600.78;4929278;29;20175;-81
2023/03/15 11:32:25;;;;;;;4.30;0.82;;;;;;;6.32;100.00;99590.31;4951429;29;20043;-81
2023/03/15 11:34:57;;;;;;;6.28;0.40;;;;;;;6.30;100.00;99587.81;4938679;29;20087;-81
2023/03/15 11:37:42;;;;;;;5.05;0.38;;;;;;;6.36;100.00;99589.03;4917174;29;20035;-81
2023/03/15 11:40:23;;;;;;;8.68;1.08;;;;;;;6.33;100.00;99592.78;4952114;29;20035;-81
2023/03/15 11:43:17;;;;;;;2.75;0.60;;;;;;;6.36;100.00;99578.53;4937838;28;20487;-81
2023/03/15 11:45:58;;;;;;;2.75;0.40;;;;;;;6.40;100.00;99571.22;4931411;29;20047;-81
2023/03/15 11:49:01;;;;;;;7.43;0.77;;;;;;;6.39;100.00;99566.94;4935562;29;20035;-81
2023/03/15 11:51:36;;;;;;;3.42;0.55;;;;;;;6.39;100.00;99570.41;4943445;29;20055;-81
2023/03/15 11:54:12;;;;;;;4.93;0.40;;;;;;;6.40;100.00;99564.16;4946478;29;20447;-81
2023/03/15 11:57:29;;;;;;;2.10;0.30;;;;;;;6.41;100.00;99562.38;4931760;29;20491;-81
2023/03/15 12:00:20;;;;;;;4.38;0.75;;;;;;;6.47;100.00;99550.50;4883523;29;20049;-81
2023/03/15 12:02:52;;;;;;;3.92;0.30;;;;;;;6.53;100.00;99549.94;4919743;29;20682;-81